sensor_id;sensor_type;location;lat;lon;timestamp;P1;durP1;ratioP1;P2;durP2;ratioP2
16193;SDS011;8204;53.582;10.080;2022-10-14T00:01:29;31.97;;;28.70;;
16193;SDS011;8204;53.582;10.080;2022-10-14T00:04:01;35.07;;;29.00;;
16193;SDS011;8204;53.582;10.080;2022-10-14T00:06:30;31.67;;;28.30;;
16193;SDS011;8204;53.582;10.080;2022-10-14T00:09:02;33.50;;;29.20;;
16193;SDS011;8204;53.582;10.080;2022-10-14T00:11:34;34.77;;;31.07;;
16193;SDS011;8204;53.582;10.080;2022-10-14T00:14:09;32.90;;;29.60;;
16193;SDS011;8204;53.582;10.080;2022-10-14T00:16:41;32.97;;;29.57;;
16193;SDS011;8204;53.582;10.080;2022-10-14T00:19:14;32.63;;;29.60;;
16193;SDS011;8204;53.582;10.080;2022-10-14T00:21:43;38.67;;;31.47;;
16193;SDS011;8204;53.582;10.080;2022-10-14T00:24:13;35.90;;;32.43;;
16193;SDS011;8204;53.582;10.080;2022-10-14T00:26:43;42.23;;;35.00;;
16193;SDS011;8204;53.582;10.080;2022-10-14T00:29:13;37.17;;;33.27;;
16193;SDS011;8204;53.582;10.080;2022-10-14T00:31:45;38.37;;;33.67;;
16193;SDS011;8204;53.582;10.080;2022-10-14T00:34:18;40.20;;;33.33;;
16193;SDS011;8204;53.582;10.080;2022-10-14T00:36:47;36.63;;;32.87;;
16193;SDS011;8204;53.582;10.080;2022-10-14T00:39:16;36.93;;;33.03;;
16193;SDS011;8204;53.582;10.080;2022-10-14T00:41:45;35.03;;;31.37;;
16193;SDS011;8204;53.582;10.080;2022-10-14T00:47:12;35.80;;;32.07;;
16193;SDS011;8204;53.582;10.080;2022-10-14T00:49:44;35.67;;;31.83;;
16193;SDS011;8204;53.582;10.080;2022-10-14T00:52:13;38.23;;;34.13;;
16193;SDS011;8204;53.582;10.080;2022-10-14T00:54:46;34.97;;;31.23;;
16193;SDS011;8204;53.582;10.080;2022-10-14T00:57:18;35.87;;;32.17;;
16193;SDS011;8204;53.582;10.080;2022-10-14T00:59:49;33.40;;;30.00;;
16193;SDS011;8204;53.582;10.080;2022-10-14T01:02:18;32.07;;;28.67;;
16193;SDS011;8204;53.582;10.080;2022-10-14T01:04:50;29.17;;;26.10;;
16193;SDS011;8204;53.582;10.080;2022-10-14T01:07:20;33.03;;;29.27;;
16193;SDS011;8204;53.582;10.080;2022-10-14T01:10:02;31.17;;;27.97;;
16193;SDS011;8204;53.582;10.080;2022-10-14T01:12:40;31.97;;;28.97;;
16193;SDS011;8204;53.582;10.080;2022-10-14T01:15:19;33.60;;;29.90;;
16193;SDS011;8204;53.582;10.080;2022-10-14T01:17:56;32.90;;;28.60;;
16193;SDS011;8204;53.582;10.080;2022-10-14T01:20:48;37.93;;;30.90;;
16193;SDS011;8204;53.582;10.080;2022-10-14T01:26:38;32.77;;;29.47;;
16193;SDS011;8204;53.582;10.080;2022-10-14T01:32:36;32.33;;;28.73;;
16193;SDS011;8204;53.582;10.080;2022-10-14T01:35:14;40.30;;;29.60;;
16193;SDS011;8204;53.582;10.080;2022-10-14T01:37:49;35.60;;;31.77;;
16193;SDS011;8204;53.582;10.080;2022-10-14T01:40:24;32.10;;;28.37;;
16193;SDS011;8204;53.582;10.080;2022-10-14T01:42:59;38.47;;;31.27;;
16193;SDS011;8204;53.582;10.080;2022-10-14T01:45:34;32.07;;;28.73;;
16193;SDS011;8204;53.582;10.080;2022-10-14T01:48:05;36.13;;;30.90;;
16193;SDS011;8204;53.582;10.080;2022-10-14T01:50:34;33.03;;;29.30;;
16193;SDS011;8204;53.582;10.080;2022-10-14T01:53:07;38.20;;;30.47;;
16193;SDS011;8204;53.582;10.080;2022-10-14T01:55:40;34.50;;;30.80;;
16193;SDS011;8204;53.582;10.080;2022-10-14T01:58:11;33.43;;;30.03;;
16193;SDS011;8204;53.582;10.080;2022-10-14T02:00:45;36.20;;;29.17;;
16193;SDS011;8204;53.582;10.080;2022-10-14T02:03:15;34.00;;;30.17;;
16193;SDS011;8204;53.582;10.080;2022-10-14T02:05:45;32.57;;;29.17;;
16193;SDS011;8204;53.582;10.080;2022-10-14T02:08:19;34.00;;;30.50;;
16193;SDS011;8204;53.582;10.080;2022-10-14T02:11:05;32.47;;;29.20;;
16193;SDS011;8204;53.582;10.080;2022-10-14T02:13:50;34.20;;;29.27;;
16193;SDS011;8204;53.582;10.080;2022-10-14T02:16:39;33.27;;;29.97;;
16193;SDS011;8204;53.582;10.080;2022-10-14T02:19:16;37.63;;;31.67;;
16193;SDS011;8204;53.582;10.080;2022-10-14T02:21:52;35.53;;;30.50;;
16193;SDS011;8204;53.582;10.080;2022-10-14T02:24:25;33.00;;;29.60;;
16193;SDS011;8204;53.582;10.080;2022-10-14T02:26:59;32.17;;;28.77;;
16193;SDS011;8204;53.582;10.080;2022-10-14T02:29:32;30.13;;;27.00;;
16193;SDS011;8204;53.582;10.080;2022-10-14T02:32:06;32.77;;;29.27;;
16193;SDS011;8204;53.582;10.080;2022-10-14T02:34:37;33.53;;;30.03;;
16193;SDS011;8204;53.582;10.080;2022-10-14T02:37:07;36.43;;;30.90;;
16193;SDS011;8204;53.582;10.080;2022-10-14T02:39:38;33.43;;;30.00;;
16193;SDS011;8204;53.582;10.080;2022-10-14T02:42:11;34.07;;;30.77;;
16193;SDS011;8204;53.582;10.080;2022-10-14T02:44:50;32.07;;;29.00;;
16193;SDS011;8204;53.582;10.080;2022-10-14T02:47:22;35.63;;;31.63;;
16193;SDS011;8204;53.582;10.080;2022-10-14T02:49:51;33.53;;;29.13;;
16193;SDS011;8204;53.582;10.080;2022-10-14T02:52:20;33.80;;;30.23;;
16193;SDS011;8204;53.582;10.080;2022-10-14T02:54:49;33.17;;;29.70;;
16193;SDS011;8204;53.582;10.080;2022-10-14T02:57:18;31.77;;;28.47;;
16193;SDS011;8204;53.582;10.080;2022-10-14T02:59:47;32.83;;;29.37;;
16193;SDS011;8204;53.582;10.080;2022-10-14T03:02:15;32.60;;;29.17;;
16193;SDS011;8204;53.582;10.080;2022-10-14T03:04:47;31.37;;;28.37;;
16193;SDS011;8204;53.582;10.080;2022-10-14T03:07:15;32.73;;;29.20;;
16193;SDS011;8204;53.582;10.080;2022-10-14T03:09:44;37.57;;;32.13;;
16193;SDS011;8204;53.582;10.080;2022-10-14T03:12:13;35.73;;;29.93;;
16193;SDS011;8204;53.582;10.080;2022-10-14T03:14:42;34.07;;;30.47;;
16193;SDS011;8204;53.582;10.080;2022-10-14T03:17:10;32.17;;;28.80;;
16193;SDS011;8204;53.582;10.080;2022-10-14T03:19:39;35.27;;;30.33;;
16193;SDS011;8204;53.582;10.080;2022-10-14T03:22:10;34.60;;;30.83;;
16193;SDS011;8204;53.582;10.080;2022-10-14T03:24:39;34.03;;;30.40;;
16193;SDS011;8204;53.582;10.080;2022-10-14T03:27:08;35.43;;;30.97;;
16193;SDS011;8204;53.582;10.080;2022-10-14T03:29:36;38.23;;;31.80;;
16193;SDS011;8204;53.582;10.080;2022-10-14T03:32:05;35.97;;;32.17;;
16193;SDS011;8204;53.582;10.080;2022-10-14T03:34:34;37.43;;;33.57;;
16193;SDS011;8204;53.582;10.080;2022-10-14T03:37:03;36.00;;;31.57;;
16193;SDS011;8204;53.582;10.080;2022-10-14T03:39:34;37.57;;;31.03;;
16193;SDS011;8204;53.582;10.080;2022-10-14T03:42:03;39.63;;;31.87;;
16193;SDS011;8204;53.582;10.080;2022-10-14T03:44:32;34.63;;;30.97;;
16193;SDS011;8204;53.582;10.080;2022-10-14T03:47:01;36.87;;;31.63;;
16193;SDS011;8204;53.582;10.080;2022-10-14T03:49:29;35.40;;;31.20;;
16193;SDS011;8204;53.582;10.080;2022-10-14T03:51:58;35.60;;;30.90;;
16193;SDS011;8204;53.582;10.080;2022-10-14T03:54:27;33.00;;;29.67;;
16193;SDS011;8204;53.582;10.080;2022-10-14T03:56:58;39.10;;;34.93;;
16193;SDS011;8204;53.582;10.080;2022-10-14T03:59:27;37.43;;;31.50;;
16193;SDS011;8204;53.582;10.080;2022-10-14T04:01:56;35.73;;;32.00;;
16193;SDS011;8204;53.582;10.080;2022-10-14T04:04:25;37.80;;;32.67;;
16193;SDS011;8204;53.582;10.080;2022-10-14T04:06:54;36.80;;;32.73;;
16193;SDS011;8204;53.582;10.080;2022-10-14T04:09:23;38.03;;;32.10;;
16193;SDS011;8204;53.582;10.080;2022-10-14T04:11:52;44.40;;;32.93;;
16193;SDS011;8204;53.582;10.080;2022-10-14T04:14:24;42.60;;;34.57;;
16193;SDS011;8204;53.582;10.080;2022-10-14T04:16:53;37.90;;;33.27;;
16193;SDS011;8204;53.582;10.080;2022-10-14T04:19:22;42.50;;;34.53;;
16193;SDS011;8204;53.582;10.080;2022-10-14T04:21:51;37.67;;;32.23;;
16193;SDS011;8204;53.582;10.080;2022-10-14T04:24:20;36.53;;;32.27;;
16193;SDS011;8204;53.582;10.080;2022-10-14T04:26:48;36.90;;;32.13;;
16193;SDS011;8204;53.582;10.080;2022-10-14T04:29:18;40.73;;;34.57;;
16193;SDS011;8204;53.582;10.080;2022-10-14T04:31:49;44.83;;;36.37;;
16193;SDS011;8204;53.582;10.080;2022-10-14T04:34:18;43.63;;;37.20;;
16193;SDS011;8204;53.582;10.080;2022-10-14T04:36:47;41.83;;;34.33;;
16193;SDS011;8204;53.582;10.080;2022-10-14T04:39:16;42.03;;;35.57;;
16193;SDS011;8204;53.582;10.080;2022-10-14T04:41:45;45.17;;;34.53;;
16193;SDS011;8204;53.582;10.080;2022-10-14T04:44:13;46.00;;;36.30;;
16193;SDS011;8204;53.582;10.080;2022-10-14T04:46:42;46.17;;;35.13;;
16193;SDS011;8204;53.582;10.080;2022-10-14T04:49:13;40.47;;;35.47;;
16193;SDS011;8204;53.582;10.080;2022-10-14T04:51:42;39.50;;;33.07;;
16193;SDS011;8204;53.582;10.080;2022-10-14T04:54:11;41.73;;;35.63;;
16193;SDS011;8204;53.582;10.080;2022-10-14T04:56:40;44.07;;;34.83;;
16193;SDS011;8204;53.582;10.080;2022-10-14T04:59:09;43.13;;;34.17;;
16193;SDS011;8204;53.582;10.080;2022-10-14T05:01:38;42.50;;;35.03;;
16193;SDS011;8204;53.582;10.080;2022-10-14T05:04:07;43.63;;;34.47;;
16193;SDS011;8204;53.582;10.080;2022-10-14T05:06:38;43.87;;;33.43;;
16193;SDS011;8204;53.582;10.080;2022-10-14T05:09:07;46.50;;;34.53;;
16193;SDS011;8204;53.582;10.080;2022-10-14T05:11:35;43.53;;;34.57;;
16193;SDS011;8204;53.582;10.080;2022-10-14T05:14:04;44.03;;;35.87;;
16193;SDS011;8204;53.582;10.080;2022-10-14T05:16:33;47.47;;;35.97;;
16193;SDS011;8204;53.582;10.080;2022-10-14T05:19:02;42.27;;;35.53;;
16193;SDS011;8204;53.582;10.080;2022-10-14T05:21:31;42.93;;;35.97;;
16193;SDS011;8204;53.582;10.080;2022-10-14T05:24:03;48.70;;;38.33;;
16193;SDS011;8204;53.582;10.080;2022-10-14T05:26:32;47.87;;;39.00;;
16193;SDS011;8204;53.582;10.080;2022-10-14T05:29:01;42.43;;;34.83;;
16193;SDS011;8204;53.582;10.080;2022-10-14T05:31:30;52.17;;;38.03;;
16193;SDS011;8204;53.582;10.080;2022-10-14T05:33:58;43.93;;;36.10;;
16193;SDS011;8204;53.582;10.080;2022-10-14T05:36:27;45.20;;;35.37;;
16193;SDS011;8204;53.582;10.080;2022-10-14T05:38:56;50.97;;;35.47;;
16193;SDS011;8204;53.582;10.080;2022-10-14T05:41:27;50.23;;;40.07;;
16193;SDS011;8204;53.582;10.080;2022-10-14T05:43:56;49.93;;;37.60;;
16193;SDS011;8204;53.582;10.080;2022-10-14T05:46:25;49.07;;;35.40;;
16193;SDS011;8204;53.582;10.080;2022-10-14T05:48:54;48.40;;;38.23;;
16193;SDS011;8204;53.582;10.080;2022-10-14T05:51:24;45.67;;;34.90;;
16193;SDS011;8204;53.582;10.080;2022-10-14T05:53:53;46.70;;;35.63;;
16193;SDS011;8204;53.582;10.080;2022-10-14T05:56:22;47.03;;;34.47;;
16193;SDS011;8204;53.582;10.080;2022-10-14T05:58:54;43.43;;;35.20;;
16193;SDS011;8204;53.582;10.080;2022-10-14T06:01:22;44.33;;;34.27;;
16193;SDS011;8204;53.582;10.080;2022-10-14T06:03:51;47.97;;;34.83;;
16193;SDS011;8204;53.582;10.080;2022-10-14T06:06:20;42.47;;;33.63;;
16193;SDS011;8204;53.582;10.080;2022-10-14T06:08:49;47.10;;;36.40;;
16193;SDS011;8204;53.582;10.080;2022-10-14T06:11:17;47.70;;;36.87;;
16193;SDS011;8204;53.582;10.080;2022-10-14T06:13:46;45.30;;;37.37;;
16193;SDS011;8204;53.582;10.080;2022-10-14T06:16:18;41.87;;;35.27;;
16193;SDS011;8204;53.582;10.080;2022-10-14T06:18:46;45.30;;;36.87;;
16193;SDS011;8204;53.582;10.080;2022-10-14T06:21:16;47.70;;;36.20;;
16193;SDS011;8204;53.582;10.080;2022-10-14T06:23:44;43.43;;;36.00;;
16193;SDS011;8204;53.582;10.080;2022-10-14T06:26:13;52.07;;;38.17;;
16193;SDS011;8204;53.582;10.080;2022-10-14T06:28:42;49.70;;;36.77;;
16193;SDS011;8204;53.582;10.080;2022-10-14T06:31:11;44.90;;;36.07;;
16193;SDS011;8204;53.582;10.080;2022-10-14T06:33:42;48.17;;;36.50;;
16193;SDS011;8204;53.582;10.080;2022-10-14T06:36:11;48.40;;;38.70;;
16193;SDS011;8204;53.582;10.080;2022-10-14T06:38:39;51.07;;;37.87;;
16193;SDS011;8204;53.582;10.080;2022-10-14T06:41:08;44.13;;;37.23;;
16193;SDS011;8204;53.582;10.080;2022-10-14T06:43:37;44.57;;;38.60;;
16193;SDS011;8204;53.582;10.080;2022-10-14T06:46:06;45.37;;;37.87;;
16193;SDS011;8204;53.582;10.080;2022-10-14T06:48:35;46.53;;;38.27;;
16193;SDS011;8204;53.582;10.080;2022-10-14T06:51:07;47.97;;;37.67;;
16193;SDS011;8204;53.582;10.080;2022-10-14T06:53:36;47.80;;;39.17;;
16193;SDS011;8204;53.582;10.080;2022-10-14T06:56:05;46.27;;;38.43;;
16193;SDS011;8204;53.582;10.080;2022-10-14T06:58:36;42.33;;;37.47;;
16193;SDS011;8204;53.582;10.080;2022-10-14T07:01:05;51.63;;;40.07;;
16193;SDS011;8204;53.582;10.080;2022-10-14T07:03:36;48.70;;;42.47;;
16193;SDS011;8204;53.582;10.080;2022-10-14T07:06:08;52.67;;;39.60;;
16193;SDS011;8204;53.582;10.080;2022-10-14T07:08:37;44.57;;;39.77;;
16193;SDS011;8204;53.582;10.080;2022-10-14T07:11:06;47.03;;;39.93;;
16193;SDS011;8204;53.582;10.080;2022-10-14T07:13:35;47.23;;;40.87;;
16193;SDS011;8204;53.582;10.080;2022-10-14T07:16:04;48.93;;;42.00;;
16193;SDS011;8204;53.582;10.080;2022-10-14T07:18:33;46.77;;;41.30;;
16193;SDS011;8204;53.582;10.080;2022-10-14T07:21:03;48.43;;;42.20;;
16193;SDS011;8204;53.582;10.080;2022-10-14T07:23:36;49.83;;;43.43;;
16193;SDS011;8204;53.582;10.080;2022-10-14T07:26:05;54.43;;;42.90;;
16193;SDS011;8204;53.582;10.080;2022-10-14T07:28:34;43.83;;;38.97;;
16193;SDS011;8204;53.582;10.080;2022-10-14T07:31:03;50.83;;;42.10;;
16193;SDS011;8204;53.582;10.080;2022-10-14T07:33:34;45.83;;;41.03;;
16193;SDS011;8204;53.582;10.080;2022-10-14T07:36:04;49.27;;;39.87;;
16193;SDS011;8204;53.582;10.080;2022-10-14T07:38:37;49.60;;;42.20;;
16193;SDS011;8204;53.582;10.080;2022-10-14T07:41:07;47.77;;;42.47;;
16193;SDS011;8204;53.582;10.080;2022-10-14T07:43:41;50.27;;;41.43;;
16193;SDS011;8204;53.582;10.080;2022-10-14T07:46:11;48.07;;;39.63;;
16193;SDS011;8204;53.582;10.080;2022-10-14T07:48:40;43.73;;;39.03;;
16193;SDS011;8204;53.582;10.080;2022-10-14T07:51:11;47.57;;;41.03;;
16193;SDS011;8204;53.582;10.080;2022-10-14T07:53:42;44.40;;;39.70;;
16193;SDS011;8204;53.582;10.080;2022-10-14T07:56:12;46.40;;;41.23;;
16193;SDS011;8204;53.582;10.080;2022-10-14T07:58:41;41.07;;;36.77;;
16193;SDS011;8204;53.582;10.080;2022-10-14T08:01:11;45.63;;;39.30;;
16193;SDS011;8204;53.582;10.080;2022-10-14T08:03:41;42.33;;;37.93;;
16193;SDS011;8204;53.582;10.080;2022-10-14T08:06:11;44.17;;;39.40;;
16193;SDS011;8204;53.582;10.080;2022-10-14T08:08:43;43.23;;;38.60;;
16193;SDS011;8204;53.582;10.080;2022-10-14T08:11:13;43.10;;;38.27;;
16193;SDS011;8204;53.582;10.080;2022-10-14T08:13:43;45.53;;;40.53;;
16193;SDS011;8204;53.582;10.080;2022-10-14T08:16:13;50.03;;;40.40;;
16193;SDS011;8204;53.582;10.080;2022-10-14T08:18:44;45.37;;;40.37;;
16193;SDS011;8204;53.582;10.080;2022-10-14T08:21:14;44.07;;;39.43;;
16193;SDS011;8204;53.582;10.080;2022-10-14T08:23:47;44.70;;;38.53;;
16193;SDS011;8204;53.582;10.080;2022-10-14T08:26:20;41.83;;;37.30;;
16193;SDS011;8204;53.582;10.080;2022-10-14T08:28:50;43.57;;;37.67;;
16193;SDS011;8204;53.582;10.080;2022-10-14T08:31:19;42.93;;;38.23;;
16193;SDS011;8204;53.582;10.080;2022-10-14T08:33:48;39.67;;;35.43;;
16193;SDS011;8204;53.582;10.080;2022-10-14T08:36:17;37.80;;;34.10;;
16193;SDS011;8204;53.582;10.080;2022-10-14T08:38:50;36.10;;;32.33;;
16193;SDS011;8204;53.582;10.080;2022-10-14T08:41:23;34.40;;;31.03;;
16193;SDS011;8204;53.582;10.080;2022-10-14T08:44:00;34.93;;;30.77;;
16193;SDS011;8204;53.582;10.080;2022-10-14T08:46:39;32.07;;;28.57;;
16193;SDS011;8204;53.582;10.080;2022-10-14T08:49:13;32.17;;;28.87;;
16193;SDS011;8204;53.582;10.080;2022-10-14T08:51:47;28.93;;;25.23;;
16193;SDS011;8204;53.582;10.080;2022-10-14T08:54:26;28.30;;;25.33;;
16193;SDS011;8204;53.582;10.080;2022-10-14T08:57:00;26.93;;;24.03;;
16193;SDS011;8204;53.582;10.080;2022-10-14T08:59:30;27.83;;;24.83;;
16193;SDS011;8204;53.582;10.080;2022-10-14T09:02:10;28.10;;;25.10;;
16193;SDS011;8204;53.582;10.080;2022-10-14T09:04:46;27.70;;;25.07;;
16193;SDS011;8204;53.582;10.080;2022-10-14T09:07:15;30.90;;;27.70;;
16193;SDS011;8204;53.582;10.080;2022-10-14T09:09:49;32.00;;;28.70;;
16193;SDS011;8204;53.582;10.080;2022-10-14T09:12:20;30.33;;;27.43;;
16193;SDS011;8204;53.582;10.080;2022-10-14T09:14:56;32.80;;;27.93;;
16193;SDS011;8204;53.582;10.080;2022-10-14T09:17:31;31.07;;;27.63;;
16193;SDS011;8204;53.582;10.080;2022-10-14T09:20:12;28.33;;;25.53;;
16193;SDS011;8204;53.582;10.080;2022-10-14T09:22:47;30.67;;;27.30;;
16193;SDS011;8204;53.582;10.080;2022-10-14T09:25:27;28.70;;;25.67;;
16193;SDS011;8204;53.582;10.080;2022-10-14T09:28:00;30.60;;;27.40;;
16193;SDS011;8204;53.582;10.080;2022-10-14T09:30:29;30.50;;;27.33;;
16193;SDS011;8204;53.582;10.080;2022-10-14T09:33:03;30.70;;;27.53;;
16193;SDS011;8204;53.582;10.080;2022-10-14T09:35:33;28.67;;;25.73;;
16193;SDS011;8204;53.582;10.080;2022-10-14T09:38:04;31.47;;;28.13;;
16193;SDS011;8204;53.582;10.080;2022-10-14T09:40:36;31.10;;;26.90;;
16193;SDS011;8204;53.582;10.080;2022-10-14T09:43:11;31.50;;;28.23;;
16193;SDS011;8204;53.582;10.080;2022-10-14T09:45:47;30.97;;;26.73;;
16193;SDS011;8204;53.582;10.080;2022-10-14T09:48:19;28.80;;;25.87;;
16193;SDS011;8204;53.582;10.080;2022-10-14T09:50:59;29.27;;;26.30;;
16193;SDS011;8204;53.582;10.080;2022-10-14T09:53:30;29.27;;;26.40;;
16193;SDS011;8204;53.582;10.080;2022-10-14T09:56:08;30.53;;;27.13;;
16193;SDS011;8204;53.582;10.080;2022-10-14T09:58:38;30.33;;;27.20;;
16193;SDS011;8204;53.582;10.080;2022-10-14T10:01:15;30.70;;;27.63;;
16193;SDS011;8204;53.582;10.080;2022-10-14T10:03:45;31.17;;;27.97;;
16193;SDS011;8204;53.582;10.080;2022-10-14T10:06:15;31.80;;;28.50;;
16193;SDS011;8204;53.582;10.080;2022-10-14T10:08:53;30.57;;;27.57;;
16193;SDS011;8204;53.582;10.080;2022-10-14T10:11:30;30.33;;;26.77;;
16193;SDS011;8204;53.582;10.080;2022-10-14T10:14:14;30.77;;;27.77;;
16193;SDS011;8204;53.582;10.080;2022-10-14T10:16:44;31.80;;;28.77;;
16193;SDS011;8204;53.582;10.080;2022-10-14T10:19:20;29.20;;;26.40;;
16193;SDS011;8204;53.582;10.080;2022-10-14T10:21:54;27.60;;;24.70;;
16193;SDS011;8204;53.582;10.080;2022-10-14T10:24:44;31.97;;;28.67;;
16193;SDS011;8204;53.582;10.080;2022-10-14T10:27:22;28.83;;;25.97;;
16193;SDS011;8204;53.582;10.080;2022-10-14T10:29:52;27.73;;;24.80;;
16193;SDS011;8204;53.582;10.080;2022-10-14T10:32:23;27.43;;;24.63;;
16193;SDS011;8204;53.582;10.080;2022-10-14T10:35:03;27.60;;;24.93;;
16193;SDS011;8204;53.582;10.080;2022-10-14T10:37:42;25.83;;;23.40;;
16193;SDS011;8204;53.582;10.080;2022-10-14T10:40:26;26.40;;;23.90;;
16193;SDS011;8204;53.582;10.080;2022-10-14T10:43:07;24.67;;;22.37;;
16193;SDS011;8204;53.582;10.080;2022-10-14T10:45:52;23.50;;;21.20;;
16193;SDS011;8204;53.582;10.080;2022-10-14T10:48:43;24.13;;;21.80;;
16193;SDS011;8204;53.582;10.080;2022-10-14T10:51:16;22.00;;;19.87;;
16193;SDS011;8204;53.582;10.080;2022-10-14T10:56:42;22.73;;;20.43;;
16193;SDS011;8204;53.582;10.080;2022-10-14T10:59:30;22.67;;;20.47;;
16193;SDS011;8204;53.582;10.080;2022-10-14T11:02:15;22.77;;;20.47;;
16193;SDS011;8204;53.582;10.080;2022-10-14T11:05:03;28.30;;;22.60;;
16193;SDS011;8204;53.582;10.080;2022-10-14T11:07:41;22.57;;;20.40;;
16193;SDS011;8204;53.582;10.080;2022-10-14T11:10:31;22.70;;;20.50;;
16193;SDS011;8204;53.582;10.080;2022-10-14T11:13:20;24.50;;;22.20;;
16193;SDS011;8204;53.582;10.080;2022-10-14T11:15:58;25.37;;;22.73;;
16193;SDS011;8204;53.582;10.080;2022-10-14T11:18:33;24.23;;;21.83;;
16193;SDS011;8204;53.582;10.080;2022-10-14T11:21:11;27.27;;;24.67;;
16193;SDS011;8204;53.582;10.080;2022-10-14T11:23:48;25.80;;;23.10;;
16193;SDS011;8204;53.582;10.080;2022-10-14T11:26:31;28.03;;;25.23;;
16193;SDS011;8204;53.582;10.080;2022-10-14T11:29:13;26.57;;;24.03;;
16193;SDS011;8204;53.582;10.080;2022-10-14T11:31:59;26.90;;;24.00;;
16193;SDS011;8204;53.582;10.080;2022-10-14T11:34:41;25.40;;;23.20;;
16193;SDS011;8204;53.582;10.080;2022-10-14T11:37:14;26.90;;;23.60;;
16193;SDS011;8204;53.582;10.080;2022-10-14T11:39:54;25.07;;;22.63;;
16193;SDS011;8204;53.582;10.080;2022-10-14T11:42:26;25.07;;;22.53;;
16193;SDS011;8204;53.582;10.080;2022-10-14T11:45:16;26.77;;;24.07;;
16193;SDS011;8204;53.582;10.080;2022-10-14T11:48:03;27.30;;;24.60;;
16193;SDS011;8204;53.582;10.080;2022-10-14T11:50:39;26.33;;;23.57;;
16193;SDS011;8204;53.582;10.080;2022-10-14T11:53:12;25.57;;;22.97;;
16193;SDS011;8204;53.582;10.080;2022-10-14T11:55:48;28.20;;;25.63;;
16193;SDS011;8204;53.582;10.080;2022-10-14T11:58:22;26.77;;;24.07;;
16193;SDS011;8204;53.582;10.080;2022-10-14T12:00:56;27.10;;;24.27;;
16193;SDS011;8204;53.582;10.080;2022-10-14T12:03:35;26.00;;;22.97;;
16193;SDS011;8204;53.582;10.080;2022-10-14T12:06:11;25.27;;;22.77;;
16193;SDS011;8204;53.582;10.080;2022-10-14T12:08:46;24.27;;;21.87;;
16193;SDS011;8204;53.582;10.080;2022-10-14T12:11:23;24.20;;;21.70;;
16193;SDS011;8204;53.582;10.080;2022-10-14T12:13:58;24.43;;;22.20;;
16193;SDS011;8204;53.582;10.080;2022-10-14T12:16:33;24.77;;;22.17;;
16193;SDS011;8204;53.582;10.080;2022-10-14T12:19:04;25.73;;;22.20;;
16193;SDS011;8204;53.582;10.080;2022-10-14T12:21:38;25.37;;;22.70;;
16193;SDS011;8204;53.582;10.080;2022-10-14T12:24:13;24.03;;;21.63;;
16193;SDS011;8204;53.582;10.080;2022-10-14T12:26:48;25.33;;;22.97;;
16193;SDS011;8204;53.582;10.080;2022-10-14T12:29:19;25.17;;;22.53;;
16193;SDS011;8204;53.582;10.080;2022-10-14T12:31:52;23.13;;;21.00;;
16193;SDS011;8204;53.582;10.080;2022-10-14T12:34:38;25.40;;;23.10;;
16193;SDS011;8204;53.582;10.080;2022-10-14T12:40:26;22.20;;;20.00;;
16193;SDS011;8204;53.582;10.080;2022-10-14T12:42:57;23.07;;;20.87;;
16193;SDS011;8204;53.582;10.080;2022-10-14T12:45:31;22.03;;;19.90;;
16193;SDS011;8204;53.582;10.080;2022-10-14T12:48:04;23.50;;;21.10;;
16193;SDS011;8204;53.582;10.080;2022-10-14T12:50:42;21.70;;;19.60;;
16193;SDS011;8204;53.582;10.080;2022-10-14T12:53:17;20.77;;;18.77;;
16193;SDS011;8204;53.582;10.080;2022-10-14T12:55:49;18.73;;;16.93;;
16193;SDS011;8204;53.582;10.080;2022-10-14T12:58:22;17.97;;;16.37;;
16193;SDS011;8204;53.582;10.080;2022-10-14T13:00:55;18.43;;;16.20;;
16193;SDS011;8204;53.582;10.080;2022-10-14T13:03:29;15.93;;;14.40;;
16193;SDS011;8204;53.582;10.080;2022-10-14T13:18:31;13.73;;;12.53;;
16193;SDS011;8204;53.582;10.080;2022-10-14T13:24:20;15.17;;;13.77;;
16193;SDS011;8204;53.582;10.080;2022-10-14T13:26:56;15.43;;;14.07;;
16193;SDS011;8204;53.582;10.080;2022-10-14T13:29:33;15.63;;;14.23;;
16193;SDS011;8204;53.582;10.080;2022-10-14T13:32:19;16.87;;;15.37;;
16193;SDS011;8204;53.582;10.080;2022-10-14T13:34:58;16.17;;;14.67;;
16193;SDS011;8204;53.582;10.080;2022-10-14T13:37:36;14.83;;;13.53;;
16193;SDS011;8204;53.582;10.080;2022-10-14T13:40:15;15.47;;;14.03;;
16193;SDS011;8204;53.582;10.080;2022-10-14T13:42:49;16.17;;;14.70;;
16193;SDS011;8204;53.582;10.080;2022-10-14T13:45:22;15.33;;;14.07;;
16193;SDS011;8204;53.582;10.080;2022-10-14T13:47:58;15.80;;;14.40;;
16193;SDS011;8204;53.582;10.080;2022-10-14T13:50:30;14.83;;;13.53;;
16193;SDS011;8204;53.582;10.080;2022-10-14T13:53:04;14.63;;;13.33;;
16193;SDS011;8204;53.582;10.080;2022-10-14T13:55:44;16.87;;;15.20;;
16193;SDS011;8204;53.582;10.080;2022-10-14T13:58:16;14.57;;;13.37;;
16193;SDS011;8204;53.582;10.080;2022-10-14T14:00:48;16.03;;;14.60;;
16193;SDS011;8204;53.582;10.080;2022-10-14T14:03:27;17.20;;;15.17;;
16193;SDS011;8204;53.582;10.080;2022-10-14T14:05:58;16.50;;;15.10;;
16193;SDS011;8204;53.582;10.080;2022-10-14T14:08:29;16.60;;;15.20;;
16193;SDS011;8204;53.582;10.080;2022-10-14T14:11:03;16.20;;;14.67;;
16193;SDS011;8204;53.582;10.080;2022-10-14T14:13:34;18.80;;;17.00;;
16193;SDS011;8204;53.582;10.080;2022-10-14T14:16:15;17.10;;;15.50;;
16193;SDS011;8204;53.582;10.080;2022-10-14T14:18:48;14.70;;;13.47;;
16193;SDS011;8204;53.582;10.080;2022-10-14T14:21:19;17.83;;;16.37;;
16193;SDS011;8204;53.582;10.080;2022-10-14T14:23:49;15.23;;;13.83;;
16193;SDS011;8204;53.582;10.080;2022-10-14T14:26:21;16.60;;;15.10;;
16193;SDS011;8204;53.582;10.080;2022-10-14T14:28:55;16.87;;;15.27;;
16193;SDS011;8204;53.582;10.080;2022-10-14T14:31:25;13.53;;;12.20;;
16193;SDS011;8204;53.582;10.080;2022-10-14T14:33:55;14.80;;;13.57;;
16193;SDS011;8204;53.582;10.080;2022-10-14T14:36:26;15.63;;;14.17;;
16193;SDS011;8204;53.582;10.080;2022-10-14T14:38:57;14.70;;;13.47;;
16193;SDS011;8204;53.582;10.080;2022-10-14T14:41:30;15.63;;;14.23;;
16193;SDS011;8204;53.582;10.080;2022-10-14T14:44:00;14.40;;;13.00;;
16193;SDS011;8204;53.582;10.080;2022-10-14T14:46:32;15.20;;;13.90;;
16193;SDS011;8204;53.582;10.080;2022-10-14T14:49:03;16.50;;;15.10;;
16193;SDS011;8204;53.582;10.080;2022-10-14T14:51:34;15.10;;;13.63;;
16193;SDS011;8204;53.582;10.080;2022-10-14T14:54:04;16.10;;;14.63;;
16193;SDS011;8204;53.582;10.080;2022-10-14T14:56:39;15.17;;;13.87;;
16193;SDS011;8204;53.582;10.080;2022-10-14T14:59:17;14.63;;;13.43;;
16193;SDS011;8204;53.582;10.080;2022-10-14T15:01:50;15.37;;;13.83;;
16193;SDS011;8204;53.582;10.080;2022-10-14T15:04:20;14.73;;;13.47;;
16193;SDS011;8204;53.582;10.080;2022-10-14T15:06:50;15.07;;;13.77;;
16193;SDS011;8204;53.582;10.080;2022-10-14T15:09:29;14.30;;;13.07;;
16193;SDS011;8204;53.582;10.080;2022-10-14T15:12:09;13.63;;;12.43;;
16193;SDS011;8204;53.582;10.080;2022-10-14T15:14:43;15.53;;;12.77;;
16193;SDS011;8204;53.582;10.080;2022-10-14T15:17:22;15.53;;;14.13;;
16193;SDS011;8204;53.582;10.080;2022-10-14T15:19:52;14.47;;;13.23;;
16193;SDS011;8204;53.582;10.080;2022-10-14T15:22:29;15.20;;;13.70;;
16193;SDS011;8204;53.582;10.080;2022-10-14T15:25:06;14.43;;;13.23;;